Khartoum, Sudan

7:31 PM EAT on May 29, 2017 (GMT +0300)
Khartoum | | Change Station

Elev 1247 ft 15.60 °N, 32.55 °E | Updated 31 minutes ago

Clear
Clear
104 °F
Feels Like 102 °F
N
10
Wind Variable Wind from SSW

Today
High -- | Low -- °F
--% Chance of Precip.
Yesterday
High -- | Low -- °F
Precip. -- in
Pressure 29.74 in
Visibility 6.2 miles
Clouds Few 5000 ft
Heat Index 102 °F
Dew Point 54 °F
Humidity 19%
Rainfall 0.00 in
Snow Depth Not available.
6:18 AM 7:16 PM
Waxing Crescent, 21% visible
METAR HSSS 291600Z 20009KT 9999 FEW050 40/12 Q1007 NOSIG
Pressure 29.74 in
Visibility 6.2 miles
Clouds Few 5000 ft
Heat Index 102 °F
Dew Point 54 °F
Humidity 19%
Rainfall 0.00 in
Snow Depth Not available.
6:18 AM 7:16 PM
Waxing Crescent, 21% visible
METAR HSSS 291600Z 20009KT 9999 FEW050 40/12 Q1007 NOSIG

Get Severe Weather Alerts

Thanks for signing up!

Be on the lookout for a verification email in your inbox.

You'll start receiving the daily forecast at 6 AM.

×

10-Day Weather Forecast

No radar image for this location.
×

Almanac

Astronomy

May. 29, 2017 Rise Set
Actual Time
Civil Twilight
Nautical Twilight
Astronomical Twilight
Moon
Length of Visible Light
Length of Day
Tomorrow will be .
, % of the Moon is Illuminated

Today's Extremes

Country Highs Country Lows

Community

WunderPhotos

Category 6

Welcome to Category 6. This is the collective home for Weather Underground's featured writeups by Dr. Jeff Masters (right), Bob Henson (left), Chris Burt, and other regular contributors.

Nearby

Air Quality

  Air Quality AQ Index Pollutant
Not available.

Snow Depth

Station Depth Elevation

Earthquake Activity

City Distance Mag. Time & Date
Minimum magnitude displayed is 2.5.

Coastal Water Temperatures

Place Temperature

Stations

Nearby Weather Stations

Station Location Temp. Windchill Dew Point Humidity Wind Precip. Elev Updated Type